Time;durP1;ratioP1;P1;durP2;ratioP2;P2;SDS_P1;SDS_P2;PMS_P1;PMS_P2;Temp;Humidity;BMP_temperature;BMP_pressure;BME280_temperature;BME280_humidity;BME280_pressure;Samples;Min_cycle;Max_cycle;Signal;HPM_P1;HPM_P2
2024/03/29 20:33:27;;;;;;;2.15;0.60;;;;;;;;;;2101391;27;20776;-49
2024/03/29 20:34:29;;;;;;;1.90;0.70;;;;;;;;;;2106905;28;20024;-45
2024/03/29 20:35:30;;;;;;;2.22;1.17;;;;;;;;;;2102289;28;20123;-48
2024/03/29 20:36:32;;;;;;;1.73;0.73;;;;;;;;;;2098793;28;20028;-52
2024/03/29 20:37:34;;;;;;;1.33;0.68;;;;;;;;;;2098567;28;20036;-51
2024/03/29 20:38:35;;;;;;;1.27;0.80;;;;;;;;;;2109852;28;20036;-50
2024/03/29 20:39:38;;;;;;;2.03;0.70;;;;;;;;;;2100694;28;20395;-51
2024/03/29 20:40:42;;;;;;;6.97;1.05;;;;;;;;;;2104280;28;20507;-48
2024/03/29 20:41:43;;;;;;;1.48;0.60;;;;;;;;;;2100079;28;20036;-51
2024/03/29 20:42:45;;;;;;;1.33;0.80;;;;;;;;;;2101104;28;20012;-53
2024/03/29 20:43:46;;;;;;;1.77;0.52;;;;;;;;;;2103205;28;20024;-52
2024/03/29 20:44:48;;;;;;;1.40;0.65;;;;;;;;;;2103415;28;20020;-52
2024/03/29 20:45:49;;;;;;;1.50;0.70;;;;;;;;;;2103837;28;20515;-47
2024/03/29 20:46:51;;;;;;;1.73;0.95;;;;;;;;;;2102430;28;20420;-51
2024/03/29 20:47:52;;;;;;;1.85;0.95;;;;;;;;;;2104315;28;20028;-53
2024/03/29 20:48:54;;;;;;;1.42;0.80;;;;;;;;;;2104115;28;20024;-53
2024/03/29 20:49:55;;;;;;;2.65;0.57;;;;;;;;;;2104276;28;20396;-53
2024/03/29 20:51:00;;;;;;;1.67;0.55;;;;;;;;;;2091104;28;20025;-52
2024/03/29 20:52:01;;;;;;;1.00;0.50;;;;;;;;;;2096036;28;20032;-50
2024/03/29 20:53:02;;;;;;;1.63;0.73;;;;;;;;;;2103136;28;20087;-51
2024/03/29 20:54:04;;;;;;;1.63;0.63;;;;;;;;;;2103567;28;20082;-52
2024/03/29 20:55:06;;;;;;;1.38;0.50;;;;;;;;;;2109089;28;20039;-52
2024/03/29 20:56:08;;;;;;;0.75;0.50;;;;;;;;;;2098119;28;20021;-47
2024/03/29 20:57:10;;;;;;;1.13;0.70;;;;;;;;;;2095487;28;20476;-49
2024/03/29 20:58:12;;;;;;;0.82;0.50;;;;;;;;;;2104219;28;20020;-52
2024/03/29 20:59:15;;;;;;;2.17;0.75;;;;;;;;;;2104059;28;20005;-52
2024/03/29 21:00:16;;;;;;;3.08;0.63;;;;;;;;;;2099086;28;20456;-51
2024/03/29 21:05:30;;;;;;;2.58;0.88;;;;;;;;;;2103061;28;20000;-48
2024/03/29 21:05:34;;;;;;;1.50;0.80;;;;;;;;;;2095423;28;20025;-52
2024/03/29 21:06:35;;;;;;;1.88;0.95;;;;;;;;;;2095212;28;20056;-52
2024/03/29 21:07:40;;;;;;;2.10;0.95;;;;;;;;;;2094822;28;20103;-53
2024/03/29 21:08:41;;;;;;;1.95;1.20;;;;;;;;;;2094916;28;20005;-52
2024/03/29 21:09:43;;;;;;;2.33;1.10;;;;;;;;;;2095749;28;20082;-48
2024/03/29 21:10:44;;;;;;;2.35;1.38;;;;;;;;;;2095399;28;20033;-51
2024/03/29 21:11:45;;;;;;;4.68;1.70;;;;;;;;;;2095539;28;20028;-54
2024/03/29 21:12:48;;;;;;;3.30;1.70;;;;;;;;;;2095684;28;20021;-53
2024/03/29 21:13:49;;;;;;;6.05;1.75;;;;;;;;;;2094505;28;20499;-50
2024/03/29 21:14:50;;;;;;;6.10;1.60;;;;;;;;;;2094501;28;20029;-53
2024/03/29 21:15:51;;;;;;;3.60;1.38;;;;;;;;;;2096075;28;20035;-52
2024/03/29 21:16:53;;;;;;;3.65;1.77;;;;;;;;;;2095409;28;20021;-53
2024/03/29 21:17:57;;;;;;;2.33;1.60;;;;;;;;;;2095323;28;20039;-54
2024/03/29 21:19:00;;;;;;;3.70;2.03;;;;;;;;;;2095352;28;20048;-54
2024/03/29 21:20:04;;;;;;;4.70;1.98;;;;;;;;;;2095179;28;20099;-45
2024/03/29 21:21:08;;;;;;;6.63;1.88;;;;;;;;;;2094589;28;20039;-46
2024/03/29 21:22:09;;;;;;;2.60;1.50;;;;;;;;;;2093522;28;20037;-45
2024/03/29 21:23:10;;;;;;;4.75;1.80;;;;;;;;;;2086511;28;20112;-46
2024/03/29 21:24:12;;;;;;;3.38;1.33;;;;;;;;;;2094370;28;20037;-45
2024/03/29 21:25:13;;;;;;;3.28;1.50;;;;;;;;;;2094435;28;20103;-46
2024/03/29 21:26:15;;;;;;;2.90;1.40;;;;;;;;;;2094017;28;20445;-45
2024/03/29 21:27:17;;;;;;;2.80;1.52;;;;;;;;;;2092344;28;20029;-46
2024/03/29 21:28:18;;;;;;;3.95;1.45;;;;;;;;;;2092740;28;20041;-45
2024/03/29 21:29:19;;;;;;;1.33;0.95;;;;;;;;;;2096933;28;20375;-46
2024/03/29 21:30:21;;;;;;;2.25;1.20;;;;;;;;;;2095162;28;20036;-46
2024/03/29 21:31:23;;;;;;;2.67;1.38;;;;;;;;;;2095139;28;20021;-47
2024/03/29 21:32:24;;;;;;;1.92;1.17;;;;;;;;;;2094228;28;20043;-45
2024/03/29 21:33:26;;;;;;;2.83;1.27;;;;;;;;;;2098971;28;20024;-46
2024/03/29 21:34:27;;;;;;;21.73;11.90;;;;;;;;;;2097512;28;20396;-49
2024/03/29 21:35:32;;;;;;;6.50;2.70;;;;;;;;;;2092723;28;20024;-47
2024/03/29 21:36:34;;;;;;;5.15;2.65;;;;;;;;;;2095336;28;20108;-46
2024/03/29 21:37:36;;;;;;;5.28;2.17;;;;;;;;;;2092653;28;20017;-48
2024/03/29 21:38:37;;;;;;;4.97;2.53;;;;;;;;;;2091223;28;20020;-47
2024/03/29 21:39:38;;;;;;;4.50;2.67;;;;;;;;;;2090421;28;20025;-45
2024/03/29 21:40:40;;;;;;;3.67;1.98;;;;;;;;;;2094509;28;20005;-47
2024/03/29 21:41:41;;;;;;;2.70;1.50;;;;;;;;;;2095524;28;20031;-47
2024/03/29 21:42:43;;;;;;;5.28;1.92;;;;;;;;;;2095650;28;20024;-48
2024/03/29 21:43:44;;;;;;;3.10;1.80;;;;;;;;;;2095540;28;20024;-46
2024/03/29 21:44:47;;;;;;;2.72;1.45;;;;;;;;;;2090637;28;20025;-48
2024/03/29 21:45:48;;;;;;;5.00;2.22;;;;;;;;;;2090301;28;20025;-47
2024/03/29 21:46:50;;;;;;;3.15;1.90;;;;;;;;;;2090351;28;20388;-46
2024/03/29 21:47:51;;;;;;;3.63;1.90;;;;;;;;;;2090010;28;20096;-46
2024/03/29 21:48:53;;;;;;;4.70;1.95;;;;;;;;;;2090353;28;20021;-47
2024/03/29 21:49:54;;;;;;;3.80;1.98;;;;;;;;;;2089809;28;20302;-46
2024/03/29 21:50:55;;;;;;;4.53;2.13;;;;;;;;;;2089426;28;20534;-46
2024/03/29 21:51:57;;;;;;;3.75;1.90;;;;;;;;;;2088134;28;20174;-46
2024/03/29 21:53:00;;;;;;;4.35;2.10;;;;;;;;;;2089130;28;20056;-45
2024/03/29 21:54:01;;;;;;;4.68;1.90;;;;;;;;;;2090421;28;20047;-47
2024/03/29 21:55:03;;;;;;;2.75;1.85;;;;;;;;;;2087977;28;20055;-49
2024/03/29 21:56:04;;;;;;;3.50;1.83;;;;;;;;;;2089435;28;20020;-48
2024/03/29 21:57:06;;;;;;;2.95;1.70;;;;;;;;;;2087828;28;20021;-46
2024/03/29 21:58:08;;;;;;;3.80;2.00;;;;;;;;;;2089837;28;20032;-53
2024/03/29 21:59:09;;;;;;;3.97;1.70;;;;;;;;;;2090619;28;20449;-54
2024/03/29 22:00:11;;;;;;;3.33;1.38;;;;;;;;;;2090536;28;20383;-53
2024/03/29 22:01:15;;;;;;;1.75;1.17;;;;;;;;;;2089831;28;20043;-51
2024/03/29 22:02:16;;;;;;;3.75;1.60;;;;;;;;;;2087780;28;20078;-52
2024/03/29 22:03:18;;;;;;;2.80;1.45;;;;;;;;;;2088553;28;20029;-52
2024/03/29 22:04:19;;;;;;;3.45;1.48;;;;;;;;;;2090043;28;20016;-53
2024/03/29 22:05:21;;;;;;;2.42;1.15;;;;;;;;;;2089821;28;20009;-53
2024/03/29 22:06:22;;;;;;;2.75;1.58;;;;;;;;;;2089683;28;20037;-51
2024/03/29 22:07:23;;;;;;;5.50;1.50;;;;;;;;;;2089572;28;20017;-50
2024/03/29 22:08:25;;;;;;;5.18;1.75;;;;;;;;;;2090590;28;20454;-51
2024/03/29 22:09:26;;;;;;;2.58;1.88;;;;;;;;;;2090996;28;20036;-52
2024/03/29 22:10:27;;;;;;;3.15;1.88;;;;;;;;;;2091421;28;20031;-48
2024/03/29 22:11:29;;;;;;;5.30;1.80;;;;;;;;;;2090766;28;20058;-49
2024/03/29 22:12:30;;;;;;;3.30;1.92;;;;;;;;;;2089998;28;20484;-51
2024/03/29 22:13:32;;;;;;;2.85;1.80;;;;;;;;;;2089241;28;20024;-51
2024/03/29 22:14:33;;;;;;;5.65;2.20;;;;;;;;;;2089597;28;20091;-52
2024/03/29 22:15:34;;;;;;;2.75;1.73;;;;;;;;;;2088991;28;20021;-58
2024/03/29 22:16:36;;;;;;;4.05;2.28;;;;;;;;;;2094518;28;20028;-52
2024/03/29 22:17:37;;;;;;;2.95;1.90;;;;;;;;;;2094473;28;20021;-53
2024/03/29 22:18:39;;;;;;;4.43;1.98;;;;;;;;;;2093652;28;20025;-50
2024/03/29 22:19:40;;;;;;;3.17;1.70;;;;;;;;;;2097845;28;20025;-53
2024/03/29 22:20:41;;;;;;;6.63;2.30;;;;;;;;;;2090568;28;20368;-53
2024/03/29 22:21:43;;;;;;;3.83;1.80;;;;;;;;;;2091088;28;20036;-51
2024/03/29 22:22:44;;;;;;;3.17;1.63;;;;;;;;;;2091283;28;20033;-50
2024/03/29 22:23:46;;;;;;;2.65;1.83;;;;;;;;;;2091034;28;20017;-51
2024/03/29 22:24:47;;;;;;;3.05;2.08;;;;;;;;;;2086142;28;20029;-52
2024/03/29 22:25:49;;;;;;;3.70;2.10;;;;;;;;;;2095131;28;20024;-52
2024/03/29 22:26:51;;;;;;;4.82;2.35;;;;;;;;;;2084771;28;20032;-53
2024/03/29 22:27:52;;;;;;;3.50;1.55;;;;;;;;;;2089163;28;20411;-49
2024/03/29 22:28:55;;;;;;;3.90;1.98;;;;;;;;;;2089495;28;20025;-50
2024/03/29 22:29:56;;;;;;;3.33;2.03;;;;;;;;;;2088003;28;20025;-51
2024/03/29 22:30:58;;;;;;;3.60;1.58;;;;;;;;;;2085665;28;20116;-48
2024/03/29 22:31:59;;;;;;;5.03;2.45;;;;;;;;;;2097027;28;20096;-47
2024/03/29 22:33:01;;;;;;;3.72;1.83;;;;;;;;;;2096332;28;20028;-49
2024/03/29 22:34:02;;;;;;;4.95;2.40;;;;;;;;;;2088207;28;20112;-47
2024/03/29 22:35:04;;;;;;;3.28;1.60;;;;;;;;;;2085999;28;20014;-48
2024/03/29 22:36:05;;;;;;;3.50;1.60;;;;;;;;;;2088873;28;20009;-50
2024/03/29 22:37:08;;;;;;;2.70;1.52;;;;;;;;;;2088671;28;20075;-51
2024/03/29 22:38:10;;;;;;;3.22;1.77;;;;;;;;;;2089350;28;20021;-47
2024/03/29 22:39:11;;;;;;;3.97;1.88;;;;;;;;;;2089422;28;20017;-50
2024/03/29 22:40:12;;;;;;;2.60;1.58;;;;;;;;;;2089782;28;20025;-49
2024/03/29 22:41:14;;;;;;;2.28;1.60;;;;;;;;;;2089013;28;20399;-48
2024/03/29 22:42:15;;;;;;;3.50;2.17;;;;;;;;;;2092294;28;20021;-49
2024/03/29 22:43:16;;;;;;;3.40;1.83;;;;;;;;;;2090022;28;20135;-49
2024/03/29 22:44:19;;;;;;;4.32;1.63;;;;;;;;;;2083332;28;20439;-49
2024/03/29 22:45:20;;;;;;;3.58;2.00;;;;;;;;;;2083545;28;20749;-50
2024/03/29 22:46:21;;;;;;;3.50;1.50;;;;;;;;;;2089691;28;20590;-48
2024/03/29 22:47:23;;;;;;;3.08;2.05;;;;;;;;;;2088891;28;20051;-49
2024/03/29 22:48:24;;;;;;;6.15;1.90;;;;;;;;;;2089840;28;20103;-49
2024/03/29 22:49:25;;;;;;;2.70;1.75;;;;;;;;;;2089184;28;20075;-48
2024/03/29 22:50:27;;;;;;;4.15;2.20;;;;;;;;;;2088368;28;20044;-49
2024/03/29 22:51:28;;;;;;;3.92;1.77;;;;;;;;;;2089232;28;20049;-50
2024/03/29 22:52:29;;;;;;;4.13;2.10;;;;;;;;;;2089481;28;20091;-50
2024/03/29 22:53:31;;;;;;;3.53;2.00;;;;;;;;;;2089158;28;20043;-48
2024/03/29 22:54:33;;;;;;;6.22;1.73;;;;;;;;;;2089319;28;20031;-49
2024/03/29 22:55:34;;;;;;;5.18;2.35;;;;;;;;;;2089221;28;20016;-48
2024/03/29 22:56:36;;;;;;;5.97;2.20;;;;;;;;;;2088594;28;20056;-50
2024/03/29 22:57:37;;;;;;;3.90;1.85;;;;;;;;;;2088559;28;20475;-48
2024/03/29 22:58:39;;;;;;;5.53;1.90;;;;;;;;;;2089564;28;20017;-49
2024/03/29 22:59:40;;;;;;;4.60;2.03;;;;;;;;;;2084890;28;20037;-50
2024/03/29 23:00:41;;;;;;;3.38;2.03;;;;;;;;;;2083962;28;20030;-49
2024/03/29 23:01:44;;;;;;;4.30;1.95;;;;;;;;;;2087559;28;20479;-50
2024/03/29 23:02:45;;;;;;;3.65;1.80;;;;;;;;;;2088125;28;20341;-49
2024/03/29 23:03:47;;;;;;;4.13;2.00;;;;;;;;;;2095550;28;20027;-51
2024/03/29 23:04:48;;;;;;;3.42;1.88;;;;;;;;;;2085737;28;20092;-50
2024/03/29 23:05:50;;;;;;;3.72;1.70;;;;;;;;;;2088935;28;20020;-50
2024/03/29 23:06:51;;;;;;;2.67;1.85;;;;;;;;;;2096727;28;20036;-50
2024/03/29 23:07:52;;;;;;;3.85;2.00;;;;;;;;;;2096203;28;20029;-50
2024/03/29 23:08:54;;;;;;;3.15;1.80;;;;;;;;;;2091424;28;20447;-50
2024/03/29 23:09:55;;;;;;;2.55;1.63;;;;;;;;;;2097020;28;20075;-51
2024/03/29 23:10:57;;;;;;;3.13;1.60;;;;;;;;;;2088965;28;20094;-50
2024/03/29 23:11:58;;;;;;;6.43;1.67;;;;;;;;;;2088861;28;20024;-49
2024/03/29 23:12:59;;;;;;;2.85;1.80;;;;;;;;;;2089303;28;20071;-50
2024/03/29 23:14:01;;;;;;;3.42;2.03;;;;;;;;;;2089238;28;20021;-50
2024/03/29 23:15:02;;;;;;;2.83;1.50;;;;;;;;;;2089438;28;20047;-51
2024/03/29 23:16:05;;;;;;;1.73;1.48;;;;;;;;;;2089520;28;20017;-51
2024/03/29 23:17:06;;;;;;;2.63;1.73;;;;;;;;;;2089341;28;20028;-51
2024/03/29 23:18:07;;;;;;;3.38;1.90;;;;;;;;;;2088561;28;20087;-49
2024/03/29 23:19:09;;;;;;;2.08;1.45;;;;;;;;;;2088459;28;20028;-51
2024/03/29 23:20:12;;;;;;;2.53;1.58;;;;;;;;;;2088667;28;20021;-49
2024/03/29 23:21:13;;;;;;;2.60;1.38;;;;;;;;;;2088580;28;20012;-49
2024/03/29 23:22:15;;;;;;;2.85;1.45;;;;;;;;;;2082974;28;20079;-49
2024/03/29 23:23:17;;;;;;;2.35;1.27;;;;;;;;;;2088648;28;20470;-49
2024/03/29 23:24:18;;;;;;;2.42;1.60;;;;;;;;;;2088739;28;20009;-49
2024/03/29 23:25:19;;;;;;;4.43;1.33;;;;;;;;;;2088520;28;20029;-49
2024/03/29 23:26:21;;;;;;;1.75;1.38;;;;;;;;;;2087856;28;20505;-49
2024/03/29 23:27:22;;;;;;;5.05;1.65;;;;;;;;;;2086348;28;20560;-50
2024/03/29 23:28:23;;;;;;;3.53;1.63;;;;;;;;;;2085875;28;20430;-51
2024/03/29 23:29:25;;;;;;;3.25;1.58;;;;;;;;;;2081863;28;20063;-49
2024/03/29 23:30:28;;;;;;;2.65;1.73;;;;;;;;;;2087647;28;20067;-51
2024/03/29 23:31:30;;;;;;;3.15;1.67;;;;;;;;;;2086587;28;20159;-50
2024/03/29 23:32:31;;;;;;;3.25;1.60;;;;;;;;;;2084390;28;20035;-50
2024/03/29 23:33:33;;;;;;;1.63;1.48;;;;;;;;;;2087768;28;20108;-49
2024/03/29 23:34:34;;;;;;;2.97;1.48;;;;;;;;;;2080346;28;20105;-49
2024/03/29 23:35:35;;;;;;;2.60;1.52;;;;;;;;;;2076445;28;20030;-49
2024/03/29 23:36:37;;;;;;;3.40;1.35;;;;;;;;;;2087905;28;20021;-50
2024/03/29 23:37:38;;;;;;;3.58;1.40;;;;;;;;;;2078355;28;20009;-49
2024/03/29 23:38:40;;;;;;;2.50;1.40;;;;;;;;;;2076212;28;20067;-50
2024/03/29 23:39:41;;;;;;;4.82;1.50;;;;;;;;;;2085031;28;20031;-49
2024/03/29 23:40:44;;;;;;;2.83;1.15;;;;;;;;;;2089107;28;20024;-50
2024/03/29 23:41:46;;;;;;;2.63;1.67;;;;;;;;;;2089368;28;20553;-49
2024/03/29 23:42:47;;;;;;;2.33;1.40;;;;;;;;;;2086216;28;20373;-49
2024/03/29 23:43:48;;;;;;;3.58;1.50;;;;;;;;;;2088901;28;20024;-49
2024/03/29 23:44:51;;;;;;;3.28;1.30;;;;;;;;;;2088250;28;20502;-49
2024/03/29 23:46:05;;;;;;;3.63;1.60;;;;;;;;;;2088527;28;20074;-49
2024/03/29 23:47:07;;;;;;;5.15;2.03;;;;;;;;;;2084688;28;20414;-49
2024/03/29 23:48:08;;;;;;;3.17;1.52;;;;;;;;;;2087804;28;20021;-49
2024/03/29 23:49:09;;;;;;;2.63;1.35;;;;;;;;;;2087789;28;20032;-49
2024/03/29 23:50:11;;;;;;;4.03;1.50;;;;;;;;;;2089128;28;20032;-50
2024/03/29 23:51:12;;;;;;;2.17;1.33;;;;;;;;;;2088917;28;20017;-50
2024/03/29 23:52:14;;;;;;;5.15;1.67;;;;;;;;;;2089167;28;20021;-48
2024/03/29 23:53:15;;;;;;;4.75;1.90;;;;;;;;;;2085469;28;20128;-48
2024/03/29 23:54:16;;;;;;;2.72;1.60;;;;;;;;;;2083572;28;20092;-48
2024/03/29 23:55:18;;;;;;;3.83;1.73;;;;;;;;;;2088097;28;20059;-48
2024/03/29 23:56:19;;;;;;;2.33;1.83;;;;;;;;;;2088444;28;20507;-49
2024/03/29 23:57:21;;;;;;;3.20;1.73;;;;;;;;;;2085714;28;20024;-49
2024/03/29 23:58:23;;;;;;;2.05;1.38;;;;;;;;;;2088765;28;20028;-48
2024/03/29 23:59:24;;;;;;;2.97;1.75;;;;;;;;;;2086923;28;20486;-49
